createdAt,value
2023-03-24T03:26:47.638Z,52.07
2023-03-24T03:31:47.962Z,54.12
2023-03-24T03:55:47.938Z,52.62
2023-03-24T03:56:51.891Z,58.73
2023-03-24T03:57:56.339Z,55.44
2023-03-24T03:59:28.346Z,52.99
2023-03-24T04:00:31.570Z,51.05
2023-03-24T04:03:01.498Z,48.67
2023-03-24T04:04:07.561Z,48.46
2023-03-24T04:05:27.723Z,48.14
2023-03-24T04:06:41.636Z,48.02
2023-03-24T04:10:03.354Z,47.80
2023-03-24T04:11:21.305Z,47.70
2023-03-24T04:13:11.700Z,47.66
2023-03-24T04:14:54.813Z,47.68
2023-03-24T04:16:39.598Z,47.62
2023-03-24T04:29:13.430Z,47.98
2023-03-24T08:58:25.239Z,49.29
2023-03-24T13:00:04.648Z,42.67
2023-03-24T13:01:15.338Z,42.84
2023-03-24T13:02:36.661Z,43.42
2023-03-24T13:03:56.789Z,43.83
2023-03-24T13:05:08.685Z,42.84
2023-03-24T13:06:21.028Z,43.33
2023-03-24T13:07:26.196Z,43.10
2023-03-24T13:08:29.231Z,43.14
2023-03-24T13:11:32.895Z,42.63
2023-03-24T13:12:49.209Z,43.07
2023-03-24T13:13:51.913Z,44.94
2023-03-24T13:15:03.660Z,46.26
2023-03-24T13:17:34.942Z,48.22
2023-03-24T13:18:41.034Z,47.70
2023-03-24T13:19:44.237Z,49.59
2023-03-24T13:20:56.129Z,49.91
2023-03-24T13:22:00.527Z,50.17
2023-03-24T13:23:21.482Z,50.49
2023-03-24T13:24:26.391Z,48.55
2023-03-24T13:30:29.210Z,49.94
2023-03-24T13:31:38.492Z,47.24
2023-03-24T13:32:46.339Z,46.85
2023-03-24T13:33:51.855Z,50.37
2023-03-24T13:35:12.680Z,49.49
2023-03-24T13:36:19.368Z,49.62
2023-03-24T13:37:25.655Z,50.14
2023-03-24T13:38:40.822Z,49.02
2023-03-24T13:39:46.491Z,49.92
2023-03-24T13:40:53.880Z,49.30
2023-03-24T13:42:04.654Z,49.74
2023-03-24T13:43:22.165Z,48.07
2023-03-24T13:44:40.457Z,49.16
2023-03-24T13:45:49.023Z,48.74
2023-03-24T13:47:07.424Z,48.17
2023-03-24T13:48:13.405Z,47.07
2023-03-24T13:52:29.219Z,47.49
2023-03-24T13:53:43.022Z,47.33
2023-03-24T13:54:48.397Z,46.97
2023-03-24T13:55:53.332Z,47.93
2023-03-24T13:57:06.762Z,48.68
2023-03-24T13:58:36.975Z,47.96
2023-03-24T14:00:08.543Z,47.22
2023-03-24T14:01:17.204Z,46.55
2023-03-24T14:02:23.883Z,48.30
2023-03-24T14:03:50.611Z,48.26
2023-03-24T14:05:15.412Z,48.01
2023-03-24T14:06:22.852Z,46.43
2023-03-24T14:10:53.042Z,47.29
2023-03-24T14:12:30.236Z,45.77
2023-03-24T14:16:48.052Z,44.14
2023-03-24T14:18:00.033Z,42.96
2023-03-24T14:19:20.810Z,42.00
2023-03-24T14:20:26.978Z,41.96
2023-03-24T14:21:32.207Z,41.80
2023-03-24T14:22:46.034Z,41.75
2023-03-24T14:23:56.813Z,41.77
2023-03-24T14:25:04.431Z,41.41
2023-03-24T14:26:16.796Z,41.21
2023-03-24T14:27:43.539Z,41.35
2023-03-24T14:29:03.247Z,40.98
2023-03-24T14:30:21.380Z,41.37
2023-03-24T14:31:37.373Z,41.34
2023-03-24T14:33:00.469Z,41.09
2023-03-24T14:34:10.378Z,41.31
2023-03-24T14:35:39.717Z,41.01
2023-03-24T14:36:45.026Z,41.38
2023-03-24T14:37:59.618Z,41.58
2023-03-24T14:39:26.495Z,41.45
2023-03-24T14:42:29.292Z,41.51
2023-03-24T14:43:43.339Z,41.90
2023-03-24T14:44:51.807Z,41.87
2023-03-24T14:46:25.287Z,41.67
2023-03-24T14:47:37.220Z,41.83
2023-03-24T14:48:53.469Z,41.95
2023-03-24T14:50:12.058Z,42.17
2023-03-24T14:51:39.940Z,42.98
2023-03-24T14:54:21.677Z,42.40
2023-03-24T14:55:30.454Z,42.98
2023-03-24T14:56:50.486Z,42.38
2023-03-24T14:58:05.471Z,42.22
2023-03-24T14:59:26.811Z,42.29
2023-03-24T15:00:45.505Z,42.68
2023-03-24T15:01:50.487Z,42.24
2023-03-24T15:03:20.176Z,42.47
2023-03-24T15:04:27.065Z,42.33
2023-03-24T15:05:36.109Z,42.17
2023-03-24T15:06:53.279Z,41.99
2023-03-24T15:08:16.391Z,42.00
2023-03-24T15:09:21.621Z,42.11
2023-03-24T15:10:42.197Z,41.83
2023-03-24T15:11:49.562Z,41.71
2023-03-24T15:12:52.051Z,41.63
2023-03-24T15:15:32.007Z,41.60
2023-03-24T15:16:43.322Z,41.55
2023-03-24T15:17:51.777Z,42.01
2023-03-24T15:19:02.625Z,41.68
2023-03-24T15:21:46.982Z,41.73
2023-03-24T15:22:55.101Z,42.01
2023-03-24T15:24:01.270Z,41.63
2023-03-24T15:25:10.664Z,41.89
2023-03-24T15:26:14.235Z,41.53
2023-03-24T15:27:21.431Z,41.73
2023-03-24T15:28:31.471Z,41.93
2023-03-24T15:29:39.431Z,41.72
2023-03-24T15:30:41.881Z,41.46
2023-03-24T15:31:44.128Z,41.33
2023-03-24T15:32:47.046Z,41.59
2023-03-24T15:33:49.493Z,41.36
2023-03-24T15:34:54.431Z,41.34
2023-03-24T15:35:58.707Z,41.41
2023-03-24T15:37:04.920Z,41.61
2023-03-24T15:38:11.142Z,41.49
2023-03-24T15:39:19.347Z,41.76
2023-03-24T15:40:33.228Z,41.39
2023-03-24T15:41:35.580Z,41.64
2023-03-24T15:42:41.048Z,41.52
2023-03-24T15:43:49.673Z,41.37
2023-03-24T15:44:54.206Z,41.75
2023-03-24T15:46:11.214Z,41.97
2023-03-24T15:47:04.439Z,41.79
2023-03-24T15:48:10.328Z,41.71
2023-03-24T15:51:02.947Z,42.04
2023-03-24T15:52:27.075Z,42.04
2023-03-24T15:55:12.853Z,42.12
2023-03-24T15:56:19.677Z,42.37
2023-03-24T15:57:26.313Z,42.33
2023-03-24T15:58:30.777Z,42.41
2023-03-24T15:59:35.921Z,42.11
2023-03-24T16:00:40.273Z,42.35
2023-03-24T16:01:45.362Z,42.54
2023-03-24T16:02:57.104Z,42.23
2023-03-24T16:04:01.010Z,42.42
2023-03-24T16:05:11.024Z,42.37
2023-03-24T16:06:16.068Z,42.36
2023-03-24T16:07:25.901Z,42.25
2023-03-24T16:08:35.395Z,42.28
2023-03-24T16:09:38.812Z,42.64
2023-03-24T16:10:47.917Z,42.38
2023-03-24T16:11:53.531Z,42.43
2023-03-24T16:12:55.909Z,42.15
2023-03-24T16:14:02.974Z,42.34
2023-03-24T16:15:10.849Z,42.36
2023-03-24T16:16:18.612Z,42.43
2023-03-24T16:17:21.473Z,42.27
2023-03-24T16:19:50.247Z,42.38
2023-03-24T16:20:55.494Z,42.33
2023-03-24T16:21:58.269Z,42.20
2023-03-24T16:23:00.992Z,42.54
2023-03-24T16:24:07.328Z,42.49
2023-03-24T16:25:09.451Z,42.35
2023-03-24T16:27:33.114Z,42.34
2023-03-24T16:28:35.719Z,42.60
2023-03-24T16:29:39.613Z,42.51
2023-03-24T16:30:54.804Z,42.47
2023-03-24T16:32:05.979Z,42.56
2023-03-24T16:33:08.832Z,42.73
2023-03-24T16:35:36.449Z,42.63
2023-03-24T16:36:43.195Z,42.84
2023-03-24T16:37:48.155Z,42.56
2023-03-24T16:38:55.623Z,42.79
2023-03-24T16:40:03.429Z,42.82
2023-03-24T16:41:13.712Z,42.94
2023-03-24T16:42:17.662Z,42.85
2023-03-24T16:43:21.335Z,42.82
2023-03-24T16:44:24.535Z,42.76
2023-03-24T16:45:35.457Z,42.57
2023-03-24T16:46:38.708Z,42.78
2023-03-24T16:47:41.624Z,42.58
2023-03-24T16:48:45.080Z,42.45
2023-03-24T16:51:13.282Z,42.77
2023-03-24T16:52:15.830Z,42.89
2023-03-24T16:53:19.476Z,42.81
2023-03-24T16:54:24.157Z,43.02
2023-03-24T16:55:26.775Z,43.32
2023-03-24T16:56:29.178Z,43.20
2023-03-24T16:57:31.737Z,43.10
2023-03-24T16:59:54.960Z,43.15
2023-03-24T17:00:57.894Z,43.19
2023-03-24T17:02:01.662Z,43.01
2023-03-24T17:03:06.199Z,43.02
2023-03-24T17:04:18.245Z,43.25
2023-03-24T17:07:18.251Z,43.24
2023-03-24T17:08:23.557Z,43.23
2023-03-24T17:09:32.101Z,43.09
2023-03-24T17:10:37.069Z,43.23
2023-03-24T17:11:42.722Z,43.20
2023-03-24T17:12:48.344Z,43.18
2023-03-24T17:13:52.485Z,43.34
2023-03-24T17:14:54.897Z,43.13
2023-03-24T17:18:30.375Z,43.41
2023-03-24T17:20:34.807Z,43.29
2023-03-24T17:21:47.320Z,43.38
2023-03-24T17:22:52.621Z,43.36
2023-03-24T17:23:55.156Z,43.43
2023-03-24T17:24:57.526Z,43.42
2023-03-24T17:26:02.254Z,43.49
2023-03-24T17:27:13.906Z,43.48
2023-03-24T17:28:19.894Z,43.50
2023-03-24T17:29:26.801Z,43.47
2023-03-24T17:30:29.426Z,43.40
2023-03-24T17:31:33.187Z,43.56
2023-03-24T17:32:38.390Z,43.55
2023-03-24T17:33:42.024Z,43.63
2023-03-24T17:34:47.712Z,43.57
2023-03-24T17:41:37.385Z,43.84
2023-03-24T17:46:34.686Z,43.79
2023-03-24T17:47:37.826Z,43.85
2023-03-24T17:48:40.070Z,43.76
2023-03-24T17:49:43.350Z,44.03
2023-03-24T17:50:46.707Z,44.10
2023-03-24T17:51:49.068Z,44.14
2023-03-24T17:52:57.529Z,44.13
2023-03-24T17:53:59.897Z,44.13
2023-03-24T17:55:03.611Z,44.29
2023-03-24T17:56:06.828Z,44.23
2023-03-24T17:57:12.071Z,44.27
2023-03-24T17:58:17.750Z,44.39
2023-03-24T17:59:23.601Z,44.53
2023-03-24T18:00:29.023Z,44.54
2023-03-24T18:01:34.491Z,44.41
2023-03-24T18:02:46.369Z,44.47
2023-03-24T18:03:50.996Z,44.40
2023-03-24T18:04:55.382Z,44.43
2023-03-24T18:07:17.649Z,44.39
2023-03-24T18:08:20.083Z,44.64
2023-03-24T18:09:22.171Z,44.53
2023-03-24T18:10:24.660Z,44.40
2023-03-24T18:11:26.970Z,44.43
2023-03-24T18:12:29.161Z,44.38
2023-03-24T18:13:31.379Z,44.52
2023-03-24T18:14:33.566Z,44.54
2023-03-24T18:15:35.891Z,44.41
2023-03-24T18:16:39.393Z,44.42
2023-03-24T18:18:01.971Z,44.53
2023-03-24T18:19:04.534Z,44.47
2023-03-24T18:20:08.179Z,44.53
2023-03-24T18:21:11.719Z,44.55
2023-03-24T18:22:14.495Z,44.75
2023-03-24T18:23:17.260Z,44.70
2023-03-24T18:24:20.600Z,44.90
2023-03-24T18:25:23.426Z,44.88
2023-03-24T18:26:26.342Z,44.97
2023-03-24T18:27:29.343Z,45.00
2023-03-24T18:28:32.134Z,45.05
2023-03-24T18:32:34.142Z,45.37
2023-03-24T18:33:36.647Z,45.28
2023-03-24T18:34:38.912Z,45.29
2023-03-24T18:35:42.505Z,45.28
2023-03-24T18:36:46.072Z,45.15
2023-03-24T18:37:49.338Z,45.14
2023-03-24T18:40:13.119Z,45.25
2023-03-24T18:41:15.377Z,45.37
2023-03-24T18:42:18.558Z,45.28
2023-03-24T18:43:21.412Z,45.33
2023-03-24T18:44:24.173Z,45.45
2023-03-24T18:45:26.356Z,45.40
2023-03-24T18:46:29.929Z,45.48
2023-03-24T18:47:32.409Z,45.56
2023-03-24T18:49:47.326Z,45.64
2023-03-24T18:50:50.871Z,45.76
2023-03-24T18:51:53.481Z,45.77
2023-03-24T18:52:55.676Z,45.76
2023-03-24T18:53:58.660Z,45.84
2023-03-24T18:55:06.424Z,45.96
2023-03-24T18:56:10.633Z,45.89
2023-03-24T18:57:13.954Z,45.75
2023-03-24T18:58:18.208Z,45.73
2023-03-24T18:59:21.022Z,45.62
2023-03-24T19:00:23.715Z,45.73
2023-03-24T19:01:27.026Z,45.77
2023-03-24T19:03:47.376Z,45.53
2023-03-24T19:04:53.680Z,45.73
2023-03-24T19:06:00.404Z,45.94
2023-03-24T19:07:02.689Z,45.84
2023-03-24T19:08:06.029Z,45.83
2023-03-24T19:09:09.840Z,45.75
2023-03-24T19:10:13.605Z,45.73
2023-03-24T19:11:15.833Z,45.81
2023-03-24T19:12:18.428Z,45.74
2023-03-24T19:13:21.548Z,45.77
2023-03-24T19:14:25.691Z,45.68
2023-03-24T19:15:28.859Z,45.75
2023-03-24T19:16:31.539Z,45.68
2023-03-24T19:17:33.850Z,45.83
2023-03-24T19:18:37.808Z,45.80
2023-03-24T19:19:42.417Z,45.76
2023-03-24T19:20:45.651Z,45.85
2023-03-24T19:21:47.802Z,45.98
2023-03-24T19:22:53.039Z,45.96
2023-03-24T19:23:55.435Z,45.90
2023-03-24T19:24:59.064Z,46.04
2023-03-24T19:26:03.357Z,45.96
2023-03-24T19:27:09.126Z,46.15
2023-03-24T19:28:11.542Z,46.14
2023-03-24T19:29:15.224Z,46.31
2023-03-24T19:30:20.402Z,46.39
2023-03-24T19:31:28.723Z,46.69
2023-03-24T19:32:33.654Z,46.59
2023-03-24T19:33:37.550Z,46.49
2023-03-24T19:34:39.799Z,46.52
2023-03-24T19:35:42.166Z,46.53
2023-03-24T19:36:49.080Z,46.63
2023-03-24T19:37:50.490Z,46.66
2023-03-24T19:38:53.949Z,46.67
2023-03-24T19:39:56.207Z,46.66
2023-03-24T19:41:06.792Z,46.78
2023-03-24T19:42:13.895Z,46.74
2023-03-24T19:43:17.085Z,46.68
2023-03-24T19:44:20.824Z,46.70
2023-03-24T19:45:26.068Z,46.92
2023-03-24T19:46:28.762Z,46.92
2023-03-24T19:47:31.635Z,46.92
2023-03-24T19:48:36.797Z,46.91
2023-03-24T19:49:41.245Z,46.97
2023-03-24T19:50:45.397Z,47.13
2023-03-24T19:51:47.749Z,47.25
2023-03-24T19:52:52.533Z,47.24
2023-03-24T19:53:58.859Z,47.13
2023-03-24T19:55:01.514Z,47.04
2023-03-24T19:57:28.504Z,47.17
2023-03-24T19:58:30.879Z,47.34
2023-03-24T19:59:33.151Z,47.34
2023-03-24T20:00:36.622Z,47.43
2023-03-24T20:01:39.098Z,47.54
2023-03-24T20:02:44.313Z,47.57
2023-03-24T20:03:51.322Z,47.61
2023-03-24T20:04:55.185Z,47.57
2023-03-24T20:07:13.943Z,47.65
2023-03-24T20:08:18.221Z,47.73
2023-03-24T20:09:23.223Z,47.66
2023-03-24T20:10:27.088Z,47.66
2023-03-24T20:11:33.968Z,47.61
2023-03-24T20:12:39.057Z,47.63
2023-03-24T20:13:49.473Z,47.55
2023-03-24T20:14:57.611Z,47.59
2023-03-24T20:15:59.903Z,47.55
2023-03-24T20:17:02.195Z,47.61
2023-03-24T20:18:07.318Z,47.64
2023-03-24T20:19:14.545Z,47.78
2023-03-24T20:20:22.774Z,47.82
2023-03-24T20:21:28.985Z,47.94
2023-03-24T20:22:33.462Z,47.98
2023-03-24T20:23:37.744Z,48.00
2023-03-24T20:24:45.318Z,48.10
2023-03-24T20:25:50.340Z,48.03
2023-03-24T20:26:55.772Z,48.09
2023-03-24T20:27:57.903Z,48.00
2023-03-24T20:29:01.233Z,48.05
2023-03-24T20:30:09.009Z,48.08
2023-03-24T20:31:14.601Z,48.20
2023-03-24T20:32:19.525Z,48.10
2023-03-24T20:33:21.814Z,48.11
2023-03-24T20:34:24.808Z,48.20
2023-03-24T20:35:28.097Z,48.17
2023-03-24T20:36:30.505Z,48.16
2023-03-24T20:37:32.740Z,48.32
2023-03-24T20:38:37.080Z,48.11
2023-03-24T20:39:40.057Z,48.17
2023-03-24T20:40:42.850Z,48.15
2023-03-24T20:41:45.062Z,48.31
2023-03-24T20:42:48.882Z,48.27
2023-03-24T20:43:53.600Z,48.35
2023-03-24T20:44:58.592Z,48.25
2023-03-24T20:46:05.349Z,48.29
2023-03-24T20:47:08.144Z,48.31
2023-03-24T20:48:10.930Z,48.34
2023-03-24T20:49:13.218Z,48.31
2023-03-24T20:50:16.774Z,48.29
2023-03-24T20:51:19.548Z,48.15
2023-03-24T20:52:24.812Z,48.17
2023-03-24T20:53:27.551Z,48.06
2023-03-24T20:54:29.678Z,47.93
2023-03-24T20:55:32.221Z,47.99
2023-03-24T20:56:36.309Z,47.93
2023-03-24T20:57:39.304Z,47.96
2023-03-24T20:58:43.775Z,48.00
2023-03-24T20:59:47.206Z,47.99
2023-03-24T21:07:34.003Z,47.81
2023-03-24T21:08:36.354Z,47.76
2023-03-24T21:09:39.649Z,47.68
2023-03-24T21:10:42.058Z,47.76
2023-03-24T21:11:44.773Z,47.75
2023-03-24T21:12:52.869Z,47.86
2023-03-24T21:13:51.211Z,47.81
2023-03-24T21:14:53.306Z,47.71
2023-03-24T21:15:56.160Z,47.84
2023-03-24T21:16:58.533Z,47.89
2023-03-24T21:18:01.204Z,47.70
2023-03-24T21:19:03.924Z,47.68
2023-03-24T21:20:07.729Z,47.77
2023-03-24T21:21:10.451Z,47.69
2023-03-24T21:22:16.302Z,47.83
2023-03-24T21:23:18.779Z,47.73
2023-03-24T21:24:21.738Z,47.74
2023-03-24T21:29:44.815Z,47.58
2023-03-24T21:30:47.776Z,47.46
2023-03-24T21:31:51.125Z,47.58
2023-03-24T21:32:55.872Z,47.70
2023-03-24T21:33:58.283Z,47.83
2023-03-24T21:35:03.384Z,47.90
2023-03-24T21:36:08.107Z,48.04
2023-03-24T21:48:55.153Z,48.02
2023-03-24T21:51:18.678Z,48.88
2023-03-24T21:52:21.200Z,49.05
2023-03-24T21:53:27.922Z,49.04
2023-03-24T21:54:30.832Z,49.04
2023-03-24T21:55:35.240Z,48.96
2023-03-24T21:56:44.347Z,49.07
2023-03-24T21:57:49.791Z,49.09
2023-03-24T21:58:53.368Z,49.21
2023-03-24T22:00:02.890Z,49.17
2023-03-24T22:01:08.343Z,49.23
2023-03-24T22:02:15.091Z,49.24
2023-03-24T22:03:18.264Z,49.38
2023-03-24T22:04:21.181Z,49.35
2023-03-24T22:05:27.172Z,49.40
2023-03-24T22:06:31.141Z,49.52
2023-03-24T22:07:33.853Z,49.51
2023-03-24T22:08:37.713Z,49.62
2023-03-24T22:09:40.049Z,49.63
2023-03-24T22:10:43.688Z,49.76
2023-03-24T22:11:46.055Z,49.72
2023-03-24T22:12:52.714Z,49.64
2023-03-24T22:13:55.068Z,49.72
2023-03-24T22:14:57.340Z,49.83
2023-03-24T22:16:02.553Z,49.82
2023-03-24T22:17:04.882Z,49.89
2023-03-24T22:18:07.565Z,49.90
2023-03-24T22:19:12.266Z,49.94
2023-03-24T22:20:15.546Z,50.03
2023-03-24T22:21:17.815Z,50.03
2023-03-24T22:22:24.326Z,50.15
2023-03-24T22:23:26.896Z,50.35
2023-03-24T22:24:29.750Z,50.48
2023-03-24T22:25:32.097Z,50.47
2023-03-24T22:26:34.986Z,50.53
2023-03-24T22:28:54.608Z,50.45
2023-03-24T22:29:56.862Z,50.53
2023-03-24T22:32:14.087Z,50.52
2023-03-24T22:33:16.399Z,50.71
2023-03-24T22:34:18.597Z,50.66
2023-03-24T22:35:20.900Z,50.56
2023-03-24T22:36:23.107Z,50.52
2023-03-24T22:37:25.276Z,50.62
2023-03-24T22:38:28.618Z,50.69
2023-03-24T22:39:31.320Z,50.66
2023-03-24T22:40:33.777Z,50.65
2023-03-24T22:41:35.954Z,50.66
2023-03-24T22:42:39.266Z,50.75
2023-03-24T22:43:41.487Z,50.66
2023-03-24T22:44:43.673Z,50.67
2023-03-24T22:45:45.889Z,50.73
2023-03-24T22:46:48.317Z,50.68
2023-03-24T22:47:50.543Z,50.77
2023-03-24T22:48:54.305Z,50.75
2023-03-24T22:49:57.039Z,50.57
2023-03-24T22:51:01.295Z,50.48
2023-03-24T22:52:08.364Z,50.54
2023-03-24T22:53:11.273Z,50.64
2023-03-24T22:54:13.442Z,50.62
2023-03-24T22:55:15.879Z,50.55
2023-03-24T22:56:19.468Z,50.42
2023-03-24T22:57:22.389Z,50.52
2023-03-24T22:58:26.313Z,50.55
2023-03-24T22:59:31.605Z,50.46
2023-03-24T23:00:33.958Z,50.38
2023-03-24T23:01:36.171Z,50.37
2023-03-24T23:02:39.108Z,50.42
2023-03-24T23:03:43.255Z,50.50
2023-03-24T23:04:46.699Z,50.58
2023-03-24T23:05:49.082Z,50.74
2023-03-24T23:06:55.374Z,50.80
2023-03-24T23:07:58.144Z,50.87
2023-03-24T23:09:00.533Z,50.87
2023-03-24T23:10:02.900Z,50.89
2023-03-24T23:11:09.282Z,50.82
2023-03-24T23:12:12.329Z,50.79
2023-03-24T23:13:18.002Z,50.76
2023-03-24T23:14:20.242Z,50.67
2023-03-24T23:15:22.562Z,50.64
2023-03-24T23:16:24.781Z,50.66
2023-03-24T23:17:27.153Z,50.57
2023-03-24T23:18:29.823Z,50.57
2023-03-24T23:19:33.026Z,50.52
2023-03-24T23:20:35.267Z,50.48
2023-03-24T23:21:37.483Z,50.49
2023-03-24T23:22:39.694Z,50.35
2023-03-24T23:23:43.837Z,50.35
2023-03-24T23:24:48.343Z,50.32
2023-03-24T23:25:52.023Z,50.30
2023-03-24T23:26:54.452Z,50.23
2023-03-24T23:27:57.170Z,50.21
2023-03-24T23:28:59.809Z,50.13
2023-03-24T23:30:06.827Z,50.09
2023-03-24T23:31:29.804Z,50.11
2023-03-24T23:32:34.994Z,50.04
2023-03-24T23:33:42.327Z,50.06
2023-03-24T23:34:44.781Z,50.06
2023-03-24T23:35:59.856Z,50.06
2023-03-24T23:37:02.179Z,50.03
2023-03-24T23:38:04.974Z,50.08
2023-03-24T23:39:09.148Z,50.05
2023-03-24T23:40:15.262Z,50.02
2023-03-24T23:41:22.673Z,49.94
2023-03-24T23:42:25.945Z,50.01
2023-03-24T23:43:31.230Z,50.05
2023-03-24T23:44:33.407Z,50.09
2023-03-24T23:45:35.639Z,50.24
2023-03-24T23:46:37.923Z,50.12
2023-03-24T23:47:42.165Z,49.97
2023-03-24T23:48:46.808Z,49.91
2023-03-24T23:49:50.421Z,49.98
2023-03-24T23:52:19.192Z,49.83
2023-03-24T23:53:22.094Z,49.92
2023-03-24T23:54:24.113Z,49.99
2023-03-24T23:55:26.402Z,49.97
2023-03-24T23:56:28.647Z,49.92
2023-03-24T23:57:33.849Z,49.90
2023-03-24T23:58:39.143Z,49.90
2023-03-24T23:59:41.742Z,49.90
